<<    November 2011    >>
Datum    Temp.       Tempmin      Tempmax    Taup.       Taup.min      Taup.max    Feuchte    Feuchtemin    Feuchtemax    Druck    Druckmin    Druckmax    Regen    Wind    Benmax  
  01.11.2011  12,3    9,5    06:09    16,3    13:08  9,4    8,4    05:55    10,7    23:03  82,9    61    13:24    95    01:16  1014,4    1013    06:55    1016    00:00  0,0  1,7  16,6  
  02.11.2011  12,5    9,3    08:19    15,2    14:35  10,2    8,8    22:47    12,4    10:04  86,5    70    14:32    98    05:09  1012,4    1007    23:59    1016    00:55  0,0  1,5  19,8  
  03.11.2011  13,7    11,8    01:13    16,6    11:36  8,5    5,7    23:59    11,7    15:41  71,4    52    11:33    83    14:14  1004,3    1002    21:39    1007    00:00  1,8  3,4  17,6  
  04.11.2011  14,0    11,2    02:33    18,6    13:51  7,3    5,4    00:31    9,4    19:28  64,5    48    14:00    75    02:00  1003,7    1001    01:24    1007    21:39  1,2  2,9  20,2  
  05.11.2011  12,7    8,2    23:22    17,2    14:18  6,9    5,8    07:09    8,3    00:16  68,9    50    14:06    91    23:46  1006,3    1003    04:39    1011    23:23  0,0  1,0  19,8  
  06.11.2011  9,6    6,3    06:25    13,8    12:52  7,6    5,7    06:25    11,1    11:17  88,1    73    15:21    98    08:01  1015,1    1011    00:00    1019    22:23  0,0  2,5  16,6  
  07.11.2011  8,5    4,3    23:58    10,2    14:52  6,5    3,6    23:58    7,8    02:01  87,1    78    13:57    95    23:59  1018,1    1017    13:08    1019    00:00  0,0  2,9  15,5  
  08.11.2011  8,0    3,3    02:36    13,2    13:27  5,7    2,9    02:36    9,3    10:43  86,4    66    13:36    98    03:00  1018,2    1017    01:38    1019    07:53  0,0  0,6  12,2  
  09.11.2011  8,4    5,8    07:52    12,6    14:46  5,6    4,4    07:52    6,6    13:04  82,9    65    14:36    95    22:58  1021,3    1018    00:00    1024    21:22  0,0  1,5  11,9  
  10.11.2011  7,0    5,9    02:41    8,9    12:39  5,0    3,5    15:48    6,6    10:22  87,0    75    12:43    98    04:32  1022,6    1022    03:22    1024    00:07  0,0  3,0  19,8  
  11.11.2011  8,2    4,8    23:50    10,9    13:22  3,1    -0,3    22:34    5,5    11:15  70,2    56    15:13    81    00:00  1023,2    1022    01:37    1027    22:22  0,0  4,7  21,2  
  12.11.2011  6,9    4,2    03:31    10,9    13:22  2,6    -0,3    00:55    5,7    23:33  74,6    59    13:18    89    23:59  1030,2    1026    00:00    1034    21:22  0,0  3,4  17,6  
  13.11.2011  6,9    4,5    23:59    10,3    15:02  4,3    1,0    23:53    5,8    00:36  83,7    69    15:21    93    08:01  1031,9    1029    21:36    1034    00:00  0,0  2,6  18,0  
  14.11.2011  5,3    2,2    23:56    10,3    14:45  -0,1    -1,1    17:57    1,0    00:58  68,8    47    13:51    80    00:58  1026,1    1023    23:59    1030    00:00  0,0  4,2  25,2  
  15.11.2011  3,3    0,1    22:19    9,8    14:26  -1,3    -2,6    21:27    0,3    11:41  73,5    48    13:37    88    08:39  1023,1    1021    14:36    1025    07:51  0,0  0,8  10,4  
  16.11.2011  3,4    0,2    01:04    7,9    13:44  -2,0    -2,7    17:41    -1,2    05:01  69,1    49    13:36    86    03:32  1023,0    1022    14:06    1025    09:51  0,0  2,5  16,6  
  17.11.2011  4,4    0,7    04:23    7,8    14:39  1,1    -2,1    01:13    3,9    23:59  79,2    68    13:48    93    08:43  1024,0    1023    00:06    1026    22:20  0,0  2,2  13,7  
  18.11.2011  8,6    7,3    06:56    10,5    14:56  5,8    3,9    00:00    7,1    14:36  82,7    77    00:00    88    21:23  1023,7    1021    23:59    1026    09:20  0,0  0,8  9,4  
  19.11.2011  9,0    6,4    22:38    12,1    14:21  4,6    2,2    22:31    6,7    09:42  75,0    54    14:52    92    08:51  1020,8    1019    16:35    1023    23:36  0,0  1,6  12,2  
  20.11.2011  7,6    4,5    22:14    11,4    12:24  3,7    1,5    01:26    6,1    10:34  76,8    63    12:26    89    22:44  1020,9    1019    19:35    1022    00:00  0,0  0,1  6,8  
  21.11.2011  6,5    3,5    22:40    11,6    14:41  2,6    1,2    19:37    4,1    00:00  77,5    56    13:32    88    00:00  1018,4    1017    14:20    1020    00:00  0,0  0,9  11,9  
  22.11.2011  6,4    3,0    06:23    11,1    14:48  3,2    1,2    04:39    5,1    20:13  80,8    63    15:04    90    07:31  1019,9    1018    00:04    1023    22:35  0,0  0,3  7,9  
  23.11.2011  8,2    4,3    04:14    10,9    14:21  5,7    2,8    03:55    9,0    22:45  84,3    69    15:15    95    06:32  1027,0    1023    00:00    1031    23:59  0,0  0,3  6,5  
  24.11.2011  7,4    4,6    07:40    10,2    14:21  5,6    0,7    23:49    8,9    00:00  88,6    73    23:59    98    03:58  1031,4    1029    20:34    1034    09:34  0,0  1,2  12,2  
  25.11.2011  5,4    1,7    08:14    8,6    18:11  1,8    -1,4    06:13    7,2    17:09  78,0    61    13:17    92    17:01  1027,3    1025    15:04    1030    00:04  0,0  3,0  16,9  
  26.11.2011  8,1    4,9    08:32    11,9    13:45  4,3    2,4    22:23    6,3    11:56  77,7    61    16:17    93    06:51  1029,2    1026    23:59    1031    05:04  0,0  2,6  18,4  
  27.11.2011  8,7    3,7    06:51    12,5    13:29  4,4    0,3    06:22    9,2    15:30  74,6    67    03:10    89    15:23  1023,1    1019    12:03    1029    23:33  0,0  3,5  20,5  
  28.11.2011  4,0    0,6    08:21    8,3    14:15  1,8    0,0    08:21    4,4    11:38  86,1    69    14:36    98    08:53  1027,6    1023    23:18    1030    03:33  0,0  0,7  9,7  
  29.11.2011  5,2    1,4    05:01    10,2    22:53  2,6    0,1    00:17    6,9    23:57  84,1    69    13:46    98    06:36  1019,5    1016    15:17    1024    00:00  0,0  3,7  16,9  
  30.11.2011  7,5    4,1    23:59    10,9    12:34  3,5    0,7    17:20    8,7    01:49  76,3    55    14:03    91    01:15  1025,3    1017    00:00    1029    19:32  0,0  1,5  13,0  
 
  Gesamt  7,9  0,1            18,6            4,3  -2,7            12,4            78,9  47            98            1021,1  1001            1034            3,0  2,0  25,2  
 
  Mittelwert  7,9  4,7            11,7            4,3  2,1            6,8            78,9  62,4            91,2            1021,1  1018,3            1023,8            0,1  2,0  15,2  
  Minimum  3,3  0,1            7,8            -2,0  -2,7            -1,2            64,5  47,0            75,0            1003,7  1001,0            1007,0            0,0  0,1  6,5  
  Maximum  14,0  11,8            18,6            10,2  8,8            12,4            88,6  78,0            98,0            1031,9  1029,0            1034,0            1,8  4,7  25,2  

  Heie Tage    Tmax >=30C     0  
  Sommertage    Tmax >=25C     0  
  Warme Tage    Tmax >=20C     0  
  Kalte Tage    Tmax  <10C     6  
  Frosttage    Tmin  <0C     0  
  Eistage    Tmax  <0C     0  
  Regentage > 0 mm    2  
  Regentage > 2 mm    0  
  Regentage > 10 mm    0  
  Regentage > 20 mm    0